Time;durP1;ratioP1;P1;durP2;ratioP2;P2;SDS_P1;SDS_P2;PMS_P1;PMS_P2;Temp;Humidity;BMP_temperature;BMP_pressure;BME280_temperature;BME280_humidity;BME280_pressure;Samples;Min_cycle;Max_cycle;Signal;HPM_P1;HPM_P2
2022/12/29 00:00:22;;;;;;;245.32;131.18;;;2.60;99.90;;;;;;4961483;29;20071;-75
2022/12/29 00:02:49;;;;;;;256.63;139.57;;;2.50;99.90;;;;;;4965319;29;20066;-73
2022/12/29 00:05:18;;;;;;;272.00;144.73;;;2.50;99.90;;;;;;4960629;28;20043;-77
2022/12/29 00:07:45;;;;;;;263.00;137.80;;;2.50;99.90;;;;;;4952930;29;20047;-76
2022/12/29 00:10:13;;;;;;;240.18;127.95;;;2.50;99.90;;;;;;4944687;29;20043;-75
2022/12/29 00:15:40;;;;;;;216.73;116.07;;;2.50;99.90;;;;;;4945347;29;20479;-75
2022/12/29 00:18:08;;;;;;;212.82;117.82;;;2.50;99.90;;;;;;4944346;29;20043;-74
2022/12/29 00:37:15;;;;;;;256.20;141.82;;;2.60;99.90;;;;;;4928437;29;20047;-75
2022/12/29 00:45:12;;;;;;;221.20;124.70;;;2.60;99.90;;;;;;4926698;29;20110;-77
2022/12/29 00:47:40;;;;;;;225.85;124.55;;;2.70;99.90;;;;;;4927552;29;20090;-77
2022/12/29 00:50:08;;;;;;;231.18;126.45;;;2.70;99.90;;;;;;4925576;29;20087;-75
2022/12/29 00:52:37;;;;;;;230.05;124.20;;;2.70;99.90;;;;;;4944815;29;20128;-75
2022/12/29 00:55:05;;;;;;;246.82;132.85;;;2.70;99.90;;;;;;4945081;28;20039;-75
2022/12/29 00:57:32;;;;;;;235.00;129.82;;;2.70;99.90;;;;;;4945297;29;20047;-74
2022/12/29 00:59:59;;;;;;;230.25;128.20;;;2.70;99.90;;;;;;4945327;29;20060;-75
2022/12/29 01:02:27;;;;;;;233.10;130.20;;;2.60;99.90;;;;;;4943863;29;20484;-76
2022/12/29 01:04:54;;;;;;;236.18;128.02;;;2.60;99.90;;;;;;4934304;29;20031;-76
2022/12/29 01:07:22;;;;;;;235.93;131.55;;;2.50;99.90;;;;;;4968792;29;20048;-74
2022/12/29 01:12:44;;;;;;;246.25;136.05;;;2.30;99.90;;;;;;4940823;29;20044;-74
2022/12/29 01:15:14;;;;;;;258.25;137.75;;;2.30;99.90;;;;;;4943168;29;20115;-74
2022/12/29 01:17:42;;;;;;;252.45;141.82;;;2.20;99.90;;;;;;4944300;29;20067;-74
2022/12/29 01:20:11;;;;;;;260.40;151.98;;;2.20;99.90;;;;;;4946793;29;20047;-75
2022/12/29 01:22:39;;;;;;;269.92;155.63;;;2.20;99.90;;;;;;4927604;29;20499;-75
2022/12/29 01:25:08;;;;;;;260.92;153.60;;;2.10;99.90;;;;;;4930106;29;20055;-75
2022/12/29 01:27:36;;;;;;;253.30;152.20;;;2.10;99.90;;;;;;4959081;29;20054;-74
2022/12/29 01:30:03;;;;;;;256.92;157.70;;;2.10;99.90;;;;;;4948768;29;20043;-77
2022/12/29 01:32:32;;;;;;;253.32;146.38;;;2.20;99.90;;;;;;4950807;29;20096;-75
2022/12/29 01:35:00;;;;;;;233.38;136.90;;;2.20;99.90;;;;;;4954987;29;20107;-74
2022/12/29 01:37:27;;;;;;;229.82;137.40;;;2.20;99.90;;;;;;4935165;29;20050;-75
2022/12/29 01:39:55;;;;;;;224.30;134.88;;;2.20;99.90;;;;;;4954789;29;20044;-75
2022/12/29 01:42:25;;;;;;;214.20;128.68;;;2.30;99.90;;;;;;4949571;29;20509;-74
2022/12/29 01:44:55;;;;;;;209.48;127.13;;;2.30;99.90;;;;;;4929531;29;20052;-75
2022/12/29 01:47:30;;;;;;;221.13;131.70;;;2.20;99.90;;;;;;4938765;29;20048;-74
2022/12/29 01:50:02;;;;;;;235.25;140.70;;;2.20;99.90;;;;;;4940573;29;20054;-75
2022/12/29 01:52:33;;;;;;;217.20;132.68;;;2.20;99.90;;;;;;4927239;29;20444;-76
2022/12/29 01:55:04;;;;;;;214.70;132.05;;;2.10;99.90;;;;;;4943233;29;20052;-76
2022/12/29 01:57:38;;;;;;;188.10;117.75;;;2.10;99.90;;;;;;4924722;29;20043;-75
2022/12/29 02:00:08;;;;;;;199.23;119.55;;;2.00;99.90;;;;;;4926318;29;20104;-75
2022/12/29 02:02:44;;;;;;;233.15;136.15;;;2.10;99.90;;;;;;4945674;29;20043;-74
2022/12/29 02:05:17;;;;;;;232.05;141.20;;;2.00;99.90;;;;;;4942208;28;20048;-76
2022/12/29 02:07:48;;;;;;;223.93;134.65;;;1.90;99.90;;;;;;4943451;29;20052;-75
2022/12/29 02:10:15;;;;;;;230.18;135.13;;;1.90;99.90;;;;;;4948626;29;20054;-74
2022/12/29 02:12:44;;;;;;;261.75;156.45;;;1.80;99.90;;;;;;4941089;29;20719;-74
2022/12/29 02:15:11;;;;;;;251.48;146.40;;;1.80;99.90;;;;;;4956893;28;20107;-76
2022/12/29 02:18:07;;;;;;;246.98;143.18;;;1.80;99.90;;;;;;4951255;29;20261;-75
2022/12/29 02:21:25;;;;;;;217.35;133.52;;;1.70;99.90;;;;;;4921606;29;20083;-75
2022/12/29 02:24:42;;;;;;;214.15;126.25;;;1.60;99.90;;;;;;4830464;29;20057;-74
2022/12/29 02:27:39;;;;;;;185.18;114.13;;;1.60;99.90;;;;;;4955761;28;20031;-75
2022/12/29 02:30:18;;;;;;;182.57;112.00;;;1.60;99.90;;;;;;4948747;28;20099;-75
2022/12/29 02:32:54;;;;;;;167.05;104.72;;;1.60;99.90;;;;;;4964919;29;20056;-74
2022/12/29 02:35:31;;;;;;;173.18;100.18;;;1.60;99.90;;;;;;4949657;29;20135;-74
2022/12/29 02:38:09;;;;;;;156.57;96.30;;;1.60;99.90;;;;;;4923335;29;21013;-74
2022/12/29 02:40:41;;;;;;;168.70;101.07;;;1.70;99.90;;;;;;4943744;29;20046;-75
2022/12/29 02:43:21;;;;;;;161.18;95.57;;;1.60;99.90;;;;;;4925739;29;20047;-74
2022/12/29 02:45:55;;;;;;;165.02;97.90;;;1.50;99.90;;;;;;4948685;29;20063;-77
2022/12/29 02:48:31;;;;;;;163.48;96.68;;;1.50;99.90;;;;;;4936832;29;20040;-74
2022/12/29 02:51:02;;;;;;;165.20;97.68;;;1.50;99.90;;;;;;4924512;29;20048;-74
2022/12/29 02:56:19;;;;;;;159.68;95.70;;;1.60;99.90;;;;;;4936932;29;20063;-74
2022/12/29 02:58:48;;;;;;;165.48;92.15;;;1.50;99.90;;;;;;4926329;29;20412;-76
2022/12/29 03:01:30;;;;;;;188.05;103.50;;;1.50;99.90;;;;;;4927301;29;20075;-76
2022/12/29 03:04:19;;;;;;;178.60;98.00;;;1.40;99.90;;;;;;4924346;29;20040;-75
2022/12/29 03:06:57;;;;;;;168.40;96.28;;;1.40;99.90;;;;;;4926495;29;20134;-75
2022/12/29 03:09:35;;;;;;;149.20;87.07;;;1.40;99.90;;;;;;4945508;29;20035;-74
2022/12/29 03:12:13;;;;;;;163.38;87.93;;;1.30;99.90;;;;;;4958548;29;20211;-74
2022/12/29 03:17:52;;;;;;;136.20;79.75;;;1.30;99.90;;;;;;4922859;29;20052;-73
2022/12/29 03:20:27;;;;;;;130.27;75.30;;;1.40;99.90;;;;;;4949580;29;20102;-76
2022/12/29 03:23:00;;;;;;;;;;;1.40;99.90;;;;;;4962591;29;20135;-75
2022/12/29 03:25:32;;;;;;;130.75;77.95;;;1.30;99.90;;;;;;4928629;29;19929;-75
2022/12/29 03:28:06;;;;;;;124.80;76.93;;;1.30;99.90;;;;;;4925249;29;20055;-75
2022/12/29 03:30:41;;;;;;;124.43;73.10;;;1.20;99.90;;;;;;4928078;29;20047;-74
2022/12/29 03:33:13;;;;;;;129.43;76.57;;;1.20;99.90;;;;;;4945538;28;20147;-74
2022/12/29 03:35:44;;;;;;;116.35;69.90;;;1.20;99.90;;;;;;4928465;29;20340;-75
2022/12/29 03:38:18;;;;;;;116.90;70.05;;;1.20;99.90;;;;;;4926356;29;20051;-76
2022/12/29 03:40:49;;;;;;;106.25;65.82;;;1.20;99.90;;;;;;4927875;29;20126;-76
2022/12/29 03:43:17;;;;;;;112.43;61.28;;;1.10;99.90;;;;;;4927008;29;20500;-74
2022/12/29 03:45:46;;;;;;;104.13;62.10;;;1.10;99.90;;;;;;4926053;29;20111;-76
2022/12/29 03:48:13;;;;;;;100.35;57.15;;;1.10;99.90;;;;;;4930797;29;20070;-77
2022/12/29 03:50:43;;;;;;;98.43;58.47;;;1.10;99.90;;;;;;4929982;29;20563;-74
2022/12/29 03:53:10;;;;;;;102.18;61.50;;;1.20;99.90;;;;;;4931039;29;20530;-76
2022/12/29 03:55:39;;;;;;;99.05;59.65;;;1.20;99.90;;;;;;4964487;29;20050;-75
2022/12/29 03:58:08;;;;;;;101.65;62.28;;;1.20;99.90;;;;;;4939910;29;20048;-77
2022/12/29 04:00:53;;;;;;;122.78;70.65;;;1.20;99.90;;;;;;4940046;29;20106;-73
2022/12/29 04:03:20;;;;;;;97.15;58.13;;;1.10;99.90;;;;;;4946802;29;20036;-74
2022/12/29 04:05:49;;;;;;;95.75;57.72;;;1.00;99.90;;;;;;4928681;29;20048;-74
2022/12/29 04:08:17;;;;;;;80.75;52.83;;;1.00;99.90;;;;;;4927248;29;20052;-76
2022/12/29 04:10:45;;;;;;;93.55;56.55;;;1.00;99.90;;;;;;4927422;29;20043;-75
2022/12/29 04:13:14;;;;;;;96.72;58.50;;;1.10;99.90;;;;;;4925463;28;20044;-75
2022/12/29 04:15:44;;;;;;;92.43;57.13;;;1.00;99.90;;;;;;4927658;29;20050;-74
2022/12/29 04:18:12;;;;;;;78.75;49.17;;;1.00;99.90;;;;;;4951092;29;20040;-75
2022/12/29 04:23:26;;;;;;;69.40;40.33;;;1.00;99.90;;;;;;4927381;29;20054;-74
2022/12/29 04:25:54;;;;;;;73.15;44.05;;;1.00;99.90;;;;;;4925000;29;20048;-74
2022/12/29 04:28:22;;;;;;;76.47;45.83;;;1.00;99.90;;;;;;4926419;28;20106;-74
2022/12/29 04:30:49;;;;;;;79.00;48.35;;;1.00;99.90;;;;;;4944627;29;20056;-74
2022/12/29 04:33:20;;;;;;;79.93;51.63;;;1.00;99.90;;;;;;4926683;29;20484;-74
2022/12/29 04:35:48;;;;;;;81.70;52.08;;;1.10;99.90;;;;;;4926595;29;20040;-74
2022/12/29 04:38:17;;;;;;;89.90;56.38;;;1.10;99.90;;;;;;4944283;29;20075;-76
2022/12/29 04:40:46;;;;;;;86.32;53.85;;;1.20;99.90;;;;;;4943060;29;20047;-75
2022/12/29 04:43:14;;;;;;;137.18;74.80;;;1.20;99.90;;;;;;4936797;29;20043;-76
2022/12/29 04:46:02;;;;;;;141.90;83.20;;;1.20;99.90;;;;;;4948327;29;20079;-76
2022/12/29 04:48:36;;;;;;;117.50;67.75;;;1.30;99.90;;;;;;4941678;29;20050;-75
2022/12/29 04:51:26;;;;;;;124.15;70.65;;;1.30;99.90;;;;;;4927361;29;20499;-75
2022/12/29 04:53:54;;;;;;;131.82;77.53;;;1.30;99.90;;;;;;4927817;29;20058;-75
2022/12/29 04:56:22;;;;;;;114.90;62.65;;;1.30;99.90;;;;;;4927196;29;20114;-75
2022/12/29 04:58:50;;;;;;;108.90;59.72;;;1.40;99.90;;;;;;4949928;29;20134;-75
2022/12/29 05:01:17;;;;;;;96.97;53.85;;;1.40;99.90;;;;;;4928213;29;20054;-74
2022/12/29 05:03:45;;;;;;;97.00;55.60;;;1.50;99.90;;;;;;4950672;28;20052;-74
2022/12/29 05:06:12;;;;;;;86.50;48.72;;;1.50;99.90;;;;;;4928076;29;20048;-76
2022/12/29 05:08:40;;;;;;;83.28;48.65;;;1.50;99.90;;;;;;4937214;29;20075;-75
2022/12/29 05:11:07;;;;;;;79.63;47.42;;;1.60;99.90;;;;;;4941033;29;20044;-75
2022/12/29 05:13:36;;;;;;;81.10;49.20;;;1.60;99.90;;;;;;4929869;29;20134;-74
2022/12/29 05:16:05;;;;;;;94.40;52.38;;;1.60;99.90;;;;;;4927127;29;20058;-74
2022/12/29 05:18:32;;;;;;;97.03;54.05;;;1.60;99.90;;;;;;4926656;29;20079;-76
2022/12/29 05:21:00;;;;;;;85.57;47.75;;;1.60;99.90;;;;;;4927224;29;20048;-75
2022/12/29 05:23:29;;;;;;;65.07;38.90;;;1.60;99.90;;;;;;4925156;29;20035;-77
2022/12/29 05:26:01;;;;;;;53.55;31.58;;;1.70;99.90;;;;;;4925833;29;20114;-75
2022/12/29 05:28:33;;;;;;;72.00;42.95;;;1.70;99.90;;;;;;4926395;29;20146;-76
2022/12/29 05:31:12;;;;;;;82.75;45.00;;;1.70;99.90;;;;;;4926340;29;20052;-75
2022/12/29 05:33:40;;;;;;;104.43;57.22;;;1.80;99.90;;;;;;4925432;29;20043;-74
2022/12/29 05:36:09;;;;;;;95.15;55.65;;;1.80;99.90;;;;;;4950575;29;20047;-74
2022/12/29 05:38:40;;;;;;;92.22;51.88;;;1.80;99.90;;;;;;4925520;29;20043;-74
2022/12/29 05:41:08;;;;;;;89.05;52.22;;;1.70;99.90;;;;;;4939979;29;20045;-74
2022/12/29 05:43:58;;;;;;;100.43;54.65;;;1.80;99.90;;;;;;4926213;29;20051;-74
2022/12/29 05:46:41;;;;;;;93.88;55.15;;;1.80;99.90;;;;;;4926957;29;20054;-74
2022/12/29 05:49:18;;;;;;;92.40;53.10;;;1.90;99.90;;;;;;4943964;29;20052;-73
2022/12/29 05:51:54;;;;;;;97.95;56.63;;;1.80;99.90;;;;;;4925495;29;20078;-74
2022/12/29 05:54:22;;;;;;;112.15;56.42;;;1.80;99.90;;;;;;4925620;29;20067;-75
2022/12/29 05:56:50;;;;;;;111.78;59.58;;;1.90;99.90;;;;;;4925463;29;20065;-75
2022/12/29 05:59:18;;;;;;;108.07;59.30;;;1.90;99.90;;;;;;4913873;29;20076;-75
2022/12/29 06:01:47;;;;;;;99.45;55.15;;;1.90;99.90;;;;;;4902896;29;20052;-75
2022/12/29 06:04:14;;;;;;;104.53;59.05;;;1.90;99.90;;;;;;4904126;29;20135;-76
2022/12/29 06:06:42;;;;;;;109.82;56.15;;;1.90;99.90;;;;;;4904673;29;20048;-75
2022/12/29 06:09:16;;;;;;;129.48;70.25;;;2.00;99.90;;;;;;4902614;29;20500;-75
2022/12/29 06:11:44;;;;;;;279.13;124.28;;;2.00;99.90;;;;;;4905414;29;20066;-74
2022/12/29 06:14:11;;;;;;;258.33;117.03;;;2.00;99.90;;;;;;4905214;29;20037;-75
2022/12/29 06:16:39;;;;;;;238.65;109.68;;;2.00;99.90;;;;;;4911496;29;20056;-75
2022/12/29 06:19:12;;;;;;;268.48;126.05;;;2.00;99.90;;;;;;4919856;29;20063;-75
2022/12/29 06:21:41;;;;;;;307.77;143.50;;;2.10;99.90;;;;;;4910235;29;20061;-75
2022/12/29 06:24:10;;;;;;;248.77;125.72;;;2.10;99.90;;;;;;4909386;29;20047;-74
2022/12/29 06:26:39;;;;;;;208.80;107.85;;;2.20;99.90;;;;;;4907442;29;20046;-74
2022/12/29 06:29:09;;;;;;;180.07;97.68;;;2.20;99.90;;;;;;4913246;29;20055;-74
2022/12/29 06:31:37;;;;;;;150.90;82.72;;;2.30;99.90;;;;;;4912959;29;20080;-74
2022/12/29 06:34:05;;;;;;;154.23;87.78;;;2.30;99.90;;;;;;4907099;29;20524;-75
2022/12/29 06:36:34;;;;;;;121.55;66.20;;;2.40;99.90;;;;;;4909206;29;20108;-75
2022/12/29 06:39:01;;;;;;;170.23;92.93;;;2.40;99.90;;;;;;4918283;29;20040;-76
2022/12/29 06:41:29;;;;;;;172.07;95.47;;;2.50;99.90;;;;;;4920580;29;20044;-73
2022/12/29 06:44:35;;;;;;;195.45;105.05;;;2.60;99.90;;;;;;4915984;29;20117;-74
2022/12/29 06:47:06;;;;;;;193.35;105.25;;;2.60;99.90;;;;;;4904289;29;20049;-74
2022/12/29 06:49:33;;;;;;;180.93;101.90;;;2.70;99.90;;;;;;4903558;29;20052;-74
2022/12/29 06:52:04;;;;;;;180.48;98.90;;;2.70;99.90;;;;;;4908876;29;20052;-76
2022/12/29 06:54:31;;;;;;;192.65;106.07;;;2.70;99.90;;;;;;4919683;29;20044;-77
2022/12/29 06:56:58;;;;;;;193.77;106.53;;;2.60;99.90;;;;;;4902634;29;20105;-78
2022/12/29 06:59:26;;;;;;;197.85;105.82;;;2.60;99.90;;;;;;4919991;29;20118;-78
2022/12/29 07:01:54;;;;;;;185.63;103.47;;;2.60;99.90;;;;;;4941698;29;20102;-78
2022/12/29 07:04:21;;;;;;;214.32;107.82;;;2.60;99.90;;;;;;4941480;29;20050;-77
2022/12/29 07:06:50;;;;;;;235.55;126.50;;;2.50;99.90;;;;;;4922350;29;20395;-77
2022/12/29 07:09:19;;;;;;;271.25;137.27;;;2.40;99.90;;;;;;4939629;29;20052;-75
2022/12/29 07:11:46;;;;;;;216.18;119.47;;;2.40;99.90;;;;;;4945802;29;20048;-76
2022/12/29 07:14:14;;;;;;;246.93;131.50;;;2.40;99.90;;;;;;4935905;29;20171;-75
2022/12/29 07:16:41;;;;;;;263.58;144.55;;;2.40;99.90;;;;;;4957499;28;20039;-76
2022/12/29 07:19:09;;;;;;;273.73;146.73;;;2.40;99.90;;;;;;4963539;29;20040;-76
2022/12/29 07:21:36;;;;;;;285.52;154.90;;;2.50;99.90;;;;;;4964268;28;20043;-77
2022/12/29 07:24:04;;;;;;;282.98;155.45;;;2.70;99.90;;;;;;4943547;29;20051;-77
2022/12/29 07:26:33;;;;;;;273.42;151.07;;;2.60;99.90;;;;;;4944578;29;20544;-77
2022/12/29 07:29:02;;;;;;;258.25;140.32;;;2.70;99.90;;;;;;4941162;29;20096;-77
2022/12/29 07:31:29;;;;;;;270.92;157.35;;;2.70;99.90;;;;;;4942093;28;20099;-75
2022/12/29 07:33:56;;;;;;;272.77;169.20;;;2.80;99.90;;;;;;4945123;29;20046;-76
2022/12/29 07:36:24;;;;;;;257.33;160.95;;;2.90;99.90;;;;;;4950098;29;20050;-79
2022/12/29 07:38:51;;;;;;;258.90;159.27;;;3.00;99.90;;;;;;4937328;29;20079;-76
2022/12/29 07:41:19;;;;;;;253.32;155.48;;;3.20;99.90;;;;;;4957811;29;20046;-74
2022/12/29 07:43:49;;;;;;;251.88;145.50;;;3.30;99.90;;;;;;4958399;29;20051;-76
2022/12/29 07:46:32;;;;;;;245.70;145.57;;;3.30;99.90;;;;;;4925306;29;20498;-75
2022/12/29 07:49:00;;;;;;;235.13;139.38;;;3.40;99.90;;;;;;4942533;29;20490;-76
2022/12/29 07:51:27;;;;;;;241.15;139.55;;;3.50;99.90;;;;;;4941529;28;20036;-78
2022/12/29 07:53:55;;;;;;;230.57;137.35;;;3.60;99.90;;;;;;4939309;29;20384;-76
2022/12/29 07:56:23;;;;;;;214.65;127.20;;;3.80;99.90;;;;;;4954432;29;20064;-76
2022/12/29 07:58:52;;;;;;;255.75;152.88;;;3.90;99.90;;;;;;4951944;29;20103;-75
2022/12/29 08:01:20;;;;;;;246.93;140.02;;;3.90;99.90;;;;;;4945231;29;20043;-75
2022/12/29 08:03:47;;;;;;;259.90;148.63;;;4.10;99.90;;;;;;4944991;28;20384;-76
2022/12/29 08:06:15;;;;;;;311.15;185.52;;;4.20;99.90;;;;;;4948048;29;20040;-77
2022/12/29 08:08:42;;;;;;;291.83;169.80;;;4.30;99.90;;;;;;4958078;29;20028;-76
2022/12/29 08:11:10;;;;;;;284.17;165.18;;;4.40;99.90;;;;;;4964880;29;20058;-75
2022/12/29 08:13:37;;;;;;;290.48;172.43;;;4.60;99.90;;;;;;4961765;29;20054;-74
2022/12/29 08:16:07;;;;;;;313.92;182.35;;;4.70;99.90;;;;;;4951409;29;20054;-77
2022/12/29 08:18:34;;;;;;;306.02;178.30;;;4.90;40.80;;;;;;4939377;29;20047;-75
2022/12/29 08:21:04;;;;;;;298.33;167.07;;;5.10;1.00;;;;;;4964041;28;20103;-75
2022/12/29 08:23:32;;;;;;;270.42;152.23;;;5.40;1.00;;;;;;4961227;29;20086;-75
2022/12/29 08:26:00;;;;;;;248.45;135.65;;;5.60;1.00;;;;;;4953823;29;20040;-75
2022/12/29 08:28:27;;;;;;;225.48;131.30;;;5.80;1.00;;;;;;4947894;29;20098;-74
2022/12/29 08:30:55;;;;;;;246.73;139.07;;;5.80;99.90;;;;;;4930362;29;20561;-76
2022/12/29 08:33:24;;;;;;;269.25;155.23;;;5.90;22.00;;;;;;4951837;29;20039;-76
2022/12/29 08:35:51;;;;;;;252.05;146.82;;;5.90;99.90;;;;;;4952719;29;20065;-76
2022/12/29 08:38:19;;;;;;;263.17;151.70;;;6.00;99.90;;;;;;4947973;29;20039;-75
2022/12/29 08:40:46;;;;;;;321.83;179.60;;;6.10;99.90;;;;;;4947514;29;20055;-76
2022/12/29 08:43:13;;;;;;;335.70;192.60;;;6.10;99.90;;;;;;4930289;29;20047;-76
2022/12/29 08:45:41;;;;;;;331.08;192.13;;;6.10;35.70;;;;;;4951826;29;20035;-77
2022/12/29 08:48:08;;;;;;;331.80;190.55;;;6.20;99.90;;;;;;4943157;29;20031;-76
2022/12/29 08:50:37;;;;;;;321.00;188.85;;;6.30;99.90;;;;;;4943211;29;20493;-77
2022/12/29 08:53:05;;;;;;;321.13;187.38;;;6.40;99.90;;;;;;4943198;28;20134;-78
2022/12/29 08:55:32;;;;;;;314.08;179.05;;;6.50;1.00;;;;;;4942857;29;20043;-76
2022/12/29 08:58:00;;;;;;;321.92;183.95;;;6.60;99.90;;;;;;4926963;29;20060;-76
2022/12/29 09:00:28;;;;;;;290.17;169.73;;;6.70;1.00;;;;;;4927402;29;20550;-75
2022/12/29 09:02:57;;;;;;;313.98;183.18;;;6.70;1.00;;;;;;4941204;29;20079;-75
2022/12/29 09:05:24;;;;;;;306.15;175.57;;;6.70;1.00;;;;;;4945688;29;20133;-78
2022/12/29 09:07:53;;;;;;;235.43;137.75;;;6.70;1.00;;;;;;4944266;29;20130;-75
2022/12/29 09:10:21;;;;;;;263.38;151.07;;;6.80;99.90;;;;;;4945041;29;20062;-77
2022/12/29 09:12:48;;;;;;;238.35;140.15;;;7.00;99.90;;;;;;4942600;29;20047;-77
2022/12/29 09:15:16;;;;;;;257.20;151.80;;;7.10;1.00;;;;;;4944927;29;20054;-76
2022/12/29 09:17:46;;;;;;;262.45;152.27;;;7.30;1.00;;;;;;4942432;29;20138;-76
2022/12/29 09:20:18;;;;;;;250.80;146.43;;;7.30;99.90;;;;;;4944183;29;20043;-73
2022/12/29 09:22:46;;;;;;;240.05;140.88;;;7.40;1.00;;;;;;4944709;29;20047;-76
2022/12/29 09:25:16;;;;;;;249.13;149.13;;;7.50;99.90;;;;;;4940774;29;20514;-76
2022/12/29 09:27:44;;;;;;;209.70;130.93;;;7.50;1.00;;;;;;4946445;29;20072;-77
2022/12/29 09:30:14;;;;;;;220.75;130.90;;;7.50;99.90;;;;;;4950189;29;20071;-74
2022/12/29 09:32:41;;;;;;;235.77;140.98;;;7.50;99.90;;;;;;4945809;28;20350;-75
2022/12/29 09:35:09;;;;;;;216.00;132.70;;;7.60;1.00;;;;;;4941677;29;20041;-77
2022/12/29 09:37:37;;;;;;;246.57;146.18;;;7.70;1.00;;;;;;4941411;29;20048;-78
2022/12/29 09:40:06;;;;;;;229.30;134.98;;;8.00;1.00;;;;;;4942062;29;20050;-78
2022/12/29 09:42:43;;;;;;;232.13;137.65;;;8.20;98.30;;;;;;4942067;29;20484;-73
2022/12/29 09:45:17;;;;;;;246.05;138.80;;;8.30;99.90;;;;;;4943675;29;20098;-78
2022/12/29 09:47:46;;;;;;;226.38;140.48;;;8.40;1.00;;;;;;4943241;29;20058;-77
2022/12/29 09:50:23;;;;;;;234.80;141.80;;;8.40;1.00;;;;;;4926236;29;20039;-78
2022/12/29 09:52:56;;;;;;;240.55;145.15;;;8.40;99.90;;;;;;4940292;29;20039;-76
2022/12/29 09:55:30;;;;;;;235.43;142.60;;;8.50;99.90;;;;;;4947053;29;20039;-76
2022/12/29 09:58:03;;;;;;;241.00;145.45;;;8.60;1.00;;;;;;4944167;29;20055;-77
2022/12/29 10:00:38;;;;;;;247.32;144.75;;;8.70;1.00;;;;;;4941904;28;20130;-79
2022/12/29 10:03:14;;;;;;;253.25;148.68;;;8.80;1.00;;;;;;4943634;29;20048;-76
2022/12/29 10:05:49;;;;;;;255.48;147.05;;;8.90;1.00;;;;;;4941988;29;20040;-77
2022/12/29 10:08:28;;;;;;;240.77;143.43;;;9.00;90.00;;;;;;4942890;29;20414;-76
2022/12/29 10:10:57;;;;;;;263.48;147.45;;;9.10;99.90;;;;;;4941381;28;20225;-78
2022/12/29 10:13:43;;;;;;;243.38;144.65;;;9.30;1.00;;;;;;4943346;29;20526;-76
2022/12/29 10:16:16;;;;;;;249.52;149.23;;;9.40;1.00;;;;;;4940239;29;20138;-79
2022/12/29 10:19:02;;;;;;;249.13;146.90;;;9.50;1.00;;;;;;4924630;29;20098;-77
2022/12/29 10:21:41;;;;;;;237.13;144.50;;;9.60;99.90;;;;;;4946582;28;20096;-78
2022/12/29 10:24:12;;;;;;;251.43;148.13;;;9.80;99.90;;;;;;4942551;29;20046;-75
2022/12/29 10:26:42;;;;;;;264.73;154.85;;;10.00;1.00;;;;;;4942969;29;20047;-78
2022/12/29 10:29:17;;;;;;;246.75;146.68;;;10.10;1.00;;;;;;4925419;29;20054;-77
2022/12/29 10:31:48;;;;;;;251.20;151.38;;;10.20;1.00;;;;;;4940509;29;20472;-76
2022/12/29 10:34:22;;;;;;;257.80;151.13;;;10.30;1.00;;;;;;4939011;29;20046;-78
2022/12/29 10:36:56;;;;;;;240.20;145.02;;;10.40;1.00;;;;;;4942054;29;20090;-75
2022/12/29 10:39:31;;;;;;;237.18;143.40;;;10.70;99.90;;;;;;4922922;29;20047;-79
2022/12/29 10:42:09;;;;;;;239.63;150.10;;;10.90;1.00;;;;;;4938529;29;20047;-75
2022/12/29 10:44:40;;;;;;;247.25;148.75;;;11.20;1.00;;;;;;4941574;29;20135;-76
2022/12/29 10:47:14;;;;;;;240.82;151.52;;;11.50;53.50;;;;;;4925540;29;20048;-77
2022/12/29 10:49:46;;;;;;;249.95;159.40;;;11.70;1.00;;;;;;4942737;29;20487;-78
2022/12/29 10:52:15;;;;;;;244.50;157.20;;;11.80;1.00;;;;;;4941333;29;20039;-77
2022/12/29 10:54:47;;;;;;;240.23;153.30;;;12.00;99.90;;;;;;4942926;29;20065;-74
2022/12/29 10:57:28;;;;;;;251.30;153.95;;;12.30;99.90;;;;;;4946172;29;20043;-76
2022/12/29 10:59:57;;;;;;;241.20;151.80;;;12.60;1.00;;;;;;4947625;29;20066;-77
2022/12/29 11:02:44;;;;;;;235.40;149.13;;;12.70;1.00;;;;;;4946257;29;20047;-75
2022/12/29 11:05:20;;;;;;;231.73;147.15;;;12.80;1.00;;;;;;4945542;29;20054;-74
2022/12/29 11:07:49;;;;;;;239.27;151.32;;;12.90;1.00;;;;;;4953167;29;20099;-74
2022/12/29 11:10:22;;;;;;;234.20;149.27;;;13.10;99.90;;;;;;4950069;28;20078;-75
2022/12/29 11:12:58;;;;;;;227.70;144.63;;;13.10;1.00;;;;;;4941997;29;20079;-74
2022/12/29 11:15:27;;;;;;;220.15;142.32;;;13.30;99.90;;;;;;4941261;29;20062;-75
2022/12/29 11:17:59;;;;;;;223.18;138.55;;;13.40;99.90;;;;;;4924119;29;20071;-77
2022/12/29 11:20:38;;;;;;;216.95;137.75;;;13.60;99.90;;;;;;4942956;29;20044;-76
2022/12/29 11:23:22;;;;;;;219.43;141.18;;;13.80;99.90;;;;;;4934328;29;20063;-76
2022/12/29 11:26:07;;;;;;;202.13;130.77;;;14.10;99.90;;;;;;4919044;29;20046;-75
2022/12/29 11:28:38;;;;;;;179.15;109.53;;;14.30;1.00;;;;;;4942330;29;20233;-77
2022/12/29 11:31:08;;;;;;;109.60;67.47;;;14.40;1.00;;;;;;4922863;29;20047;-77
2022/12/29 11:33:39;;;;;;;36.30;23.95;;;14.60;1.00;;;;;;4951050;29;20059;-76
2022/12/29 11:36:11;;;;;;;130.10;83.63;;;14.70;1.00;;;;;;4940731;29;20130;-77
2022/12/29 11:38:42;;;;;;;229.68;145.50;;;14.90;1.00;;;;;;4943401;29;20562;-77
2022/12/29 11:41:14;;;;;;;190.00;116.55;;;15.10;1.00;;;;;;4945369;29;20110;-76
2022/12/29 11:43:44;;;;;;;173.65;104.60;;;15.10;1.00;;;;;;4946162;29;20043;-75
2022/12/29 11:46:18;;;;;;;201.80;122.70;;;15.30;1.00;;;;;;4946680;29;20107;-75
2022/12/29 11:48:48;;;;;;;134.80;83.93;;;15.20;1.00;;;;;;4932532;29;20062;-78
2022/12/29 11:51:24;;;;;;;131.95;81.22;;;15.30;1.00;;;;;;4956466;29;20067;-77
2022/12/29 11:53:55;;;;;;;120.32;75.45;;;15.20;1.00;;;;;;4963086;29;20079;-78
2022/12/29 11:56:35;;;;;;;127.68;77.97;;;15.00;1.00;;;;;;4956148;29;20132;-76
2022/12/29 11:59:37;;;;;;;73.57;44.78;;;15.00;1.00;;;;;;4943742;28;20071;-77
2022/12/29 12:02:31;;;;;;;92.20;54.33;;;14.90;1.00;;;;;;4955294;29;20059;-78
2022/12/29 12:05:07;;;;;;;89.80;55.10;;;15.00;1.00;;;;;;4946722;29;20058;-74
2022/12/29 12:07:43;;;;;;;80.63;49.50;;;15.10;1.00;;;;;;4946019;29;20098;-75
2022/12/29 12:10:20;;;;;;;60.13;37.85;;;15.20;1.00;;;;;;4947080;29;20058;-73
2022/12/29 12:12:54;;;;;;;66.53;39.70;;;15.20;1.00;;;;;;4931603;29;20035;-76
2022/12/29 12:15:26;;;;;;;60.78;36.40;;;15.20;1.00;;;;;;4945829;29;20170;-74
2022/12/29 12:18:03;;;;;;;54.05;31.08;;;15.20;1.00;;;;;;4975034;29;20052;-74
2022/12/29 12:20:43;;;;;;;54.08;32.42;;;15.30;1.00;;;;;;4961137;28;20047;-78
2022/12/29 12:23:22;;;;;;;41.80;28.13;;;15.30;1.00;;;;;;4964267;29;20052;-77
2022/12/29 12:25:58;;;;;;;40.83;27.45;;;15.40;1.00;;;;;;4938401;29;20130;-77
2022/12/29 12:28:29;;;;;;;;;;;15.40;1.00;;;;;;4945543;29;20126;-76
2022/12/29 12:31:00;;;;;;;43.75;28.08;;;15.40;1.00;;;;;;4944568;29;19926;-78
2022/12/29 12:33:32;;;;;;;53.80;33.67;;;15.40;1.00;;;;;;4945795;29;20036;-77
2022/12/29 12:36:15;;;;;;;48.78;28.70;;;15.50;1.00;;;;;;4947158;29;20035;-78
2022/12/29 12:38:50;;;;;;;43.92;28.27;;;15.40;1.00;;;;;;4945301;29;20462;-77
2022/12/29 12:41:28;;;;;;;46.40;29.52;;;15.30;1.00;;;;;;4934549;29;20047;-76
2022/12/29 12:44:05;;;;;;;51.13;30.35;;;15.40;1.00;;;;;;4948311;29;20047;-74
2022/12/29 12:47:11;;;;;;;45.05;28.45;;;15.30;1.00;;;;;;4948222;29;20051;-78
2022/12/29 12:50:11;;;;;;;52.30;30.50;;;15.40;1.00;;;;;;4942653;28;20060;-77
2022/12/29 12:52:54;;;;;;;56.17;28.83;;;15.50;1.00;;;;;;4940189;29;20534;-78
2022/12/29 12:55:40;;;;;;;52.65;30.90;;;15.50;1.00;;;;;;4930022;29;20052;-77
2022/12/29 12:58:18;;;;;;;44.00;26.63;;;15.50;1.00;;;;;;4944628;29;20083;-78
2022/12/29 13:01:03;;;;;;;50.65;29.20;;;15.50;1.00;;;;;;4925603;29;20092;-73
2022/12/29 13:03:45;;;;;;;42.70;26.15;;;15.50;1.00;;;;;;4952668;29;20035;-76
2022/12/29 13:06:23;;;;;;;42.83;25.27;;;15.50;1.00;;;;;;4955619;29;20047;-75
2022/12/29 13:09:09;;;;;;;56.03;32.95;;;15.50;1.00;;;;;;4948222;29;20039;-74
2022/12/29 13:11:50;;;;;;;56.47;32.38;;;15.50;1.00;;;;;;4944621;29;20145;-79
2022/12/29 13:14:31;;;;;;;58.90;36.13;;;15.50;1.00;;;;;;4943910;29;20043;-75
2022/12/29 13:17:09;;;;;;;58.97;33.83;;;15.50;1.00;;;;;;4946415;29;20036;-76
2022/12/29 13:19:42;;;;;;;66.95;38.40;;;15.30;1.00;;;;;;4948249;29;20048;-78
2022/12/29 13:22:20;;;;;;;66.28;36.38;;;15.30;1.00;;;;;;4932899;29;20055;-77
2022/12/29 13:24:59;;;;;;;70.40;37.90;;;15.10;1.00;;;;;;4949993;29;20491;-75
2022/12/29 13:27:36;;;;;;;66.47;38.67;;;15.10;1.00;;;;;;4946536;29;20597;-77